Time;durP1;ratioP1;P1;durP2;ratioP2;P2;SDS_P1;SDS_P2;PMS_P1;PMS_P2;Temp;Humidity;BMP_temperature;BMP_pressure;BME280_temperature;BME280_humidity;BME280_pressure;Samples;Min_cycle;Max_cycle;Signal;HPM_P1;HPM_P2
2022/09/11 00:00:38;;;;;;;27.42;20.10;;;;;;;;;;5030822;28;20224;-64
2022/09/11 00:03:03;;;;;;;27.00;19.75;;;;;;;;;;5031702;28;20294;-65
2022/09/11 00:05:30;;;;;;;26.55;19.58;;;;;;;;;;5031131;28;20242;-64
2022/09/11 00:07:55;;;;;;;29.75;20.08;;;;;;;;;;5032007;28;20239;-64
2022/09/11 00:10:21;;;;;;;29.08;20.17;;;;;;;;;;5031461;28;20706;-64
2022/09/11 00:12:48;;;;;;;29.58;20.45;;;;;;;;;;5030133;28;20210;-64
2022/09/11 00:15:13;;;;;;;32.13;20.23;;;;;;;;;;5031340;28;20281;-64
2022/09/11 00:17:39;;;;;;;28.40;20.15;;;;;;;;;;5031668;28;20731;-64
2022/09/11 00:20:04;;;;;;;31.70;21.33;;;;;;;;;;5030667;28;20613;-64
2022/09/11 00:22:29;;;;;;;30.42;20.42;;;;;;;;;;5030165;28;20216;-64
2022/09/11 00:24:55;;;;;;;29.05;18.88;;;;;;;;;;5031841;28;20204;-64
2022/09/11 00:27:20;;;;;;;27.70;19.25;;;;;;;;;;5030704;28;20254;-64
2022/09/11 00:29:45;;;;;;;28.25;19.70;;;;;;;;;;5030475;28;20703;-64
2022/09/11 00:32:11;;;;;;;27.92;20.17;;;;;;;;;;5031108;28;20212;-64
2022/09/11 00:34:38;;;;;;;29.58;20.05;;;;;;;;;;5030917;28;20617;-64
2022/09/11 00:37:03;;;;;;;30.40;21.17;;;;;;;;;;5030717;28;20261;-65
2022/09/11 00:39:29;;;;;;;25.73;18.63;;;;;;;;;;5031267;28;20216;-64
2022/09/11 00:41:54;;;;;;;33.13;21.02;;;;;;;;;;5031040;28;20420;-64
2022/09/11 00:44:41;;;;;;;29.02;20.10;;;;;;;;;;5030892;28;20354;-64
2022/09/11 00:47:08;;;;;;;29.92;20.38;;;;;;;;;;5030588;28;20572;-65
2022/09/11 00:49:35;;;;;;;23.52;18.27;;;;;;;;;;5029659;28;20211;-64
2022/09/11 00:52:03;;;;;;;28.52;18.98;;;;;;;;;;5038319;28;20217;-65
2022/09/11 00:54:31;;;;;;;28.50;20.27;;;;;;;;;;5049070;28;20658;-64
2022/09/11 00:56:57;;;;;;;31.33;20.98;;;;;;;;;;5049802;28;20238;-64
2022/09/11 00:59:24;;;;;;;29.95;20.88;;;;;;;;;;5049163;28;20214;-64
2022/09/11 01:01:49;;;;;;;29.33;20.30;;;;;;;;;;5050051;28;20213;-64
2022/09/11 01:04:15;;;;;;;29.20;18.98;;;;;;;;;;5049083;28;20211;-64
2022/09/11 01:06:40;;;;;;;32.03;21.45;;;;;;;;;;5050760;28;20199;-64
2022/09/11 01:09:05;;;;;;;27.65;19.85;;;;;;;;;;5049594;28;20219;-65
2022/09/11 01:11:39;;;;;;;26.27;19.45;;;;;;;;;;5050885;28;20211;-64
2022/09/11 01:14:08;;;;;;;32.67;21.50;;;;;;;;;;5049109;28;20578;-64
2022/09/11 01:16:37;;;;;;;29.88;20.58;;;;;;;;;;5047391;28;20678;-64
2022/09/11 01:19:12;;;;;;;30.48;20.42;;;;;;;;;;5029003;28;20211;-64
2022/09/11 01:21:44;;;;;;;32.08;21.00;;;;;;;;;;5030592;28;20215;-64
2022/09/11 01:24:11;;;;;;;27.70;20.20;;;;;;;;;;5029407;28;20216;-64
2022/09/11 01:26:37;;;;;;;29.88;20.33;;;;;;;;;;5030607;28;20211;-64
2022/09/11 01:29:14;;;;;;;32.80;21.95;;;;;;;;;;5028764;28;20215;-64
2022/09/11 01:31:41;;;;;;;34.35;22.42;;;;;;;;;;5029719;28;20250;-64
2022/09/11 01:34:08;;;;;;;32.03;22.50;;;;;;;;;;5028431;28;20664;-65
2022/09/11 01:36:37;;;;;;;33.05;22.58;;;;;;;;;;5027961;28;20223;-65
2022/09/11 01:39:03;;;;;;;28.42;20.00;;;;;;;;;;5028782;28;20740;-64
2022/09/11 01:41:39;;;;;;;31.38;21.42;;;;;;;;;;5030177;28;20223;-64
2022/09/11 01:44:07;;;;;;;31.85;21.75;;;;;;;;;;5008174;28;20242;-64
2022/09/11 01:46:34;;;;;;;36.63;23.20;;;;;;;;;;5009344;28;20661;-64
2022/09/11 01:49:02;;;;;;;38.15;24.23;;;;;;;;;;5009158;28;20683;-64
2022/09/11 01:51:28;;;;;;;35.45;23.45;;;;;;;;;;5016794;28;20206;-64
2022/09/11 01:53:53;;;;;;;35.67;23.17;;;;;;;;;;5050185;28;20227;-64
2022/09/11 01:56:21;;;;;;;33.65;23.40;;;;;;;;;;5049499;28;20609;-64
2022/09/11 01:58:46;;;;;;;36.67;22.48;;;;;;;;;;5048198;28;20297;-64
2022/09/11 02:01:14;;;;;;;32.03;21.52;;;;;;;;;;5048325;28;20664;-64
2022/09/11 02:03:41;;;;;;;41.22;25.90;;;;;;;;;;5048768;28;20222;-64
2022/09/11 02:06:08;;;;;;;41.28;24.27;;;;;;;;;;5047560;28;20677;-64
2022/09/11 02:08:36;;;;;;;33.70;22.17;;;;;;;;;;5048590;28;20207;-64
2022/09/11 02:11:03;;;;;;;38.72;24.25;;;;;;;;;;5048305;28;20207;-64
2022/09/11 02:13:35;;;;;;;43.00;27.02;;;;;;;;;;5047749;28;20211;-64
2022/09/11 02:16:13;;;;;;;40.00;23.63;;;;;;;;;;5048326;28;20203;-63
2022/09/11 02:18:39;;;;;;;37.15;24.58;;;;;;;;;;5024381;28;20721;-64
2022/09/11 02:21:04;;;;;;;32.45;22.70;;;;;;;;;;4999672;28;20303;-64
2022/09/11 02:23:30;;;;;;;36.05;24.00;;;;;;;;;;5006876;28;20211;-63
2022/09/11 02:25:55;;;;;;;37.58;25.25;;;;;;;;;;5017982;28;20812;-64
2022/09/11 02:28:20;;;;;;;32.58;22.63;;;;;;;;;;5008134;28;20220;-64
2022/09/11 02:30:45;;;;;;;42.83;26.17;;;;;;;;;;5000218;28;20258;-64
2022/09/11 02:33:25;;;;;;;51.65;28.00;;;;;;;;;;4993650;28;20226;-64
2022/09/11 02:35:51;;;;;;;42.33;25.58;;;;;;;;;;5008050;28;20224;-64
2022/09/11 02:38:19;;;;;;;43.83;25.73;;;;;;;;;;4992057;28;20287;-64
2022/09/11 02:40:46;;;;;;;34.28;23.25;;;;;;;;;;5014672;28;20231;-64
2022/09/11 02:43:22;;;;;;;47.30;27.60;;;;;;;;;;5014873;28;20316;-64
2022/09/11 02:45:53;;;;;;;44.75;26.17;;;;;;;;;;5018237;28;20211;-64
2022/09/11 02:48:35;;;;;;;40.92;27.10;;;;;;;;;;5021059;28;20223;-64
2022/09/11 02:51:04;;;;;;;44.40;26.50;;;;;;;;;;5022733;28;20220;-64
2022/09/11 02:53:48;;;;;;;43.63;26.83;;;;;;;;;;5014982;28;20289;-64
2022/09/11 02:56:15;;;;;;;38.58;25.27;;;;;;;;;;5017320;28;20274;-64
2022/09/11 02:58:41;;;;;;;38.65;26.73;;;;;;;;;;5015213;28;20215;-64
2022/09/11 03:01:07;;;;;;;42.65;28.67;;;;;;;;;;5014685;28;20563;-64
2022/09/11 03:03:40;;;;;;;50.25;29.25;;;;;;;;;;5021545;28;20211;-64
2022/09/11 03:06:05;;;;;;;56.53;29.70;;;;;;;;;;5022926;28;20685;-64
2022/09/11 03:08:31;;;;;;;45.85;28.05;;;;;;;;;;5022432;28;20302;-64
2022/09/11 03:10:56;;;;;;;41.85;27.02;;;;;;;;;;5021515;28;20606;-63
2022/09/11 03:13:21;;;;;;;43.78;27.05;;;;;;;;;;5022750;28;20219;-64
2022/09/11 03:15:47;;;;;;;42.35;27.20;;;;;;;;;;5022290;28;20215;-64
2022/09/11 03:18:14;;;;;;;40.97;26.65;;;;;;;;;;5014234;28;20232;-64
2022/09/11 03:20:42;;;;;;;38.13;25.95;;;;;;;;;;5015230;28;20215;-64
2022/09/11 03:23:08;;;;;;;39.25;26.05;;;;;;;;;;5013964;28;20211;-64
2022/09/11 03:25:33;;;;;;;44.03;26.70;;;;;;;;;;5019449;28;20211;-64
2022/09/11 03:27:59;;;;;;;40.13;25.65;;;;;;;;;;5012037;28;20217;-64
2022/09/11 03:30:24;;;;;;;39.38;25.85;;;;;;;;;;5002293;28;20215;-64
2022/09/11 03:32:49;;;;;;;35.25;24.30;;;;;;;;;;5003493;28;20204;-64
2022/09/11 03:35:15;;;;;;;37.97;25.17;;;;;;;;;;5002959;28;20254;-64
2022/09/11 03:37:40;;;;;;;37.22;24.67;;;;;;;;;;5006818;28;20684;-63
2022/09/11 03:40:06;;;;;;;38.33;24.20;;;;;;;;;;5001257;28;21289;-64
2022/09/11 03:42:32;;;;;;;37.25;23.88;;;;;;;;;;5007005;28;20311;-63
2022/09/11 03:44:58;;;;;;;35.58;24.00;;;;;;;;;;4994583;28;20220;-64
2022/09/11 03:47:23;;;;;;;34.20;23.55;;;;;;;;;;4996373;28;20219;-63
2022/09/11 03:49:48;;;;;;;37.55;24.30;;;;;;;;;;5020536;28;20216;-64
2022/09/11 03:52:13;;;;;;;41.08;24.98;;;;;;;;;;5011619;28;20256;-63
2022/09/11 03:54:39;;;;;;;41.80;23.88;;;;;;;;;;5002787;28;20208;-63
2022/09/11 03:57:04;;;;;;;36.83;24.33;;;;;;;;;;5001788;28;20221;-64
2022/09/11 03:59:30;;;;;;;37.40;23.55;;;;;;;;;;5002492;28;20205;-63
2022/09/11 04:01:55;;;;;;;38.65;24.63;;;;;;;;;;5002904;28;20685;-63
2022/09/11 04:04:20;;;;;;;38.10;24.60;;;;;;;;;;4995777;28;20680;-63
2022/09/11 04:06:46;;;;;;;37.08;23.80;;;;;;;;;;5012816;28;20210;-63
2022/09/11 04:09:11;;;;;;;38.30;23.67;;;;;;;;;;5014064;28;20838;-63
2022/09/11 04:11:38;;;;;;;45.70;26.80;;;;;;;;;;5019940;28;20663;-63
2022/09/11 04:14:04;;;;;;;38.53;24.13;;;;;;;;;;5021538;28;20212;-63
2022/09/11 04:16:31;;;;;;;38.78;24.65;;;;;;;;;;5019047;28;20210;-63
2022/09/11 04:18:57;;;;;;;40.88;26.73;;;;;;;;;;5020835;28;20254;-64
2022/09/11 04:21:23;;;;;;;39.97;25.73;;;;;;;;;;5021305;28;20469;-63
2022/09/11 04:23:50;;;;;;;41.75;25.60;;;;;;;;;;5020242;28;20215;-63
2022/09/11 04:26:16;;;;;;;38.10;24.75;;;;;;;;;;5016125;28;20301;-63
2022/09/11 04:28:42;;;;;;;38.60;24.88;;;;;;;;;;5009860;28;20295;-64
2022/09/11 04:31:07;;;;;;;38.00;22.63;;;;;;;;;;4994049;28;20204;-63
2022/09/11 04:33:33;;;;;;;35.05;22.85;;;;;;;;;;4998339;28;20232;-63
2022/09/11 04:36:02;;;;;;;39.63;23.92;;;;;;;;;;5002268;28;20224;-63
2022/09/11 04:38:28;;;;;;;36.67;23.15;;;;;;;;;;5020706;28;20525;-63
2022/09/11 04:40:53;;;;;;;34.10;21.92;;;;;;;;;;5020287;28;20235;-63
2022/09/11 04:43:19;;;;;;;37.47;23.67;;;;;;;;;;5005616;28;20228;-63
2022/09/11 04:45:44;;;;;;;40.85;23.88;;;;;;;;;;5001902;28;20238;-63
2022/09/11 04:48:09;;;;;;;35.15;23.33;;;;;;;;;;5015695;28;20210;-64
2022/09/11 04:50:35;;;;;;;35.22;22.63;;;;;;;;;;5014404;28;20609;-63
2022/09/11 04:53:00;;;;;;;34.65;23.27;;;;;;;;;;5008842;28;20311;-63
2022/09/11 04:55:25;;;;;;;32.47;21.13;;;;;;;;;;4994657;28;20243;-63
2022/09/11 04:57:52;;;;;;;30.30;20.73;;;;;;;;;;5001698;28;20679;-63
2022/09/11 05:00:18;;;;;;;33.67;21.30;;;;;;;;;;5001248;28;20212;-63
2022/09/11 05:02:43;;;;;;;37.42;23.55;;;;;;;;;;5020372;28;20507;-63
2022/09/11 05:05:08;;;;;;;31.23;21.60;;;;;;;;;;5020368;28;20265;-63
2022/09/11 05:07:34;;;;;;;33.83;21.23;;;;;;;;;;5018784;28;20318;-63
2022/09/11 05:09:59;;;;;;;28.25;19.48;;;;;;;;;;5019893;28;20294;-63
2022/09/11 05:12:24;;;;;;;32.97;22.20;;;;;;;;;;5012435;28;20203;-63
2022/09/11 05:14:50;;;;;;;33.92;20.92;;;;;;;;;;5012462;28;20671;-63
2022/09/11 05:17:15;;;;;;;34.45;21.13;;;;;;;;;;5005297;28;20228;-63
2022/09/11 05:19:40;;;;;;;31.60;21.17;;;;;;;;;;5019147;28;20204;-63
2022/09/11 05:22:06;;;;;;;35.00;21.35;;;;;;;;;;5018341;28;20322;-63
2022/09/11 05:24:31;;;;;;;32.05;20.90;;;;;;;;;;5020849;28;20257;-63
2022/09/11 05:26:58;;;;;;;29.77;20.33;;;;;;;;;;5018387;28;20586;-63
2022/09/11 05:29:25;;;;;;;32.80;20.85;;;;;;;;;;5019464;28;20215;-63
2022/09/11 05:31:51;;;;;;;31.83;20.55;;;;;;;;;;5020410;28;20234;-63
2022/09/11 05:34:17;;;;;;;29.25;19.92;;;;;;;;;;5015519;28;20204;-64
2022/09/11 05:36:42;;;;;;;33.30;20.33;;;;;;;;;;5005379;28;20993;-66
2022/09/11 05:39:09;;;;;;;36.10;22.20;;;;;;;;;;5019893;28;20224;-65
2022/09/11 05:41:34;;;;;;;31.08;21.90;;;;;;;;;;5010809;28;20427;-66
2022/09/11 05:43:59;;;;;;;37.10;22.00;;;;;;;;;;5029538;28;20220;-69
2022/09/11 05:46:25;;;;;;;32.95;20.58;;;;;;;;;;5029894;28;20204;-69
2022/09/11 05:48:50;;;;;;;32.08;22.70;;;;;;;;;;5029454;28;20421;-68
2022/09/11 05:51:18;;;;;;;30.85;20.80;;;;;;;;;;5023355;28;20214;-71
2022/09/11 05:53:44;;;;;;;30.48;19.83;;;;;;;;;;5028347;28;20570;-69
2022/09/11 05:56:12;;;;;;;31.40;20.17;;;;;;;;;;5028032;28;20214;-69
2022/09/11 05:58:37;;;;;;;29.25;19.77;;;;;;;;;;5028783;28;20230;-69
2022/09/11 06:01:04;;;;;;;27.92;20.08;;;;;;;;;;5027996;28;20208;-70
2022/09/11 06:03:31;;;;;;;30.95;21.13;;;;;;;;;;5029032;28;20753;-69
2022/09/11 06:05:57;;;;;;;28.77;20.05;;;;;;;;;;5025125;28;20690;-68
2022/09/11 06:08:23;;;;;;;26.17;19.38;;;;;;;;;;5028886;28;20261;-69
2022/09/11 06:10:48;;;;;;;25.73;18.42;;;;;;;;;;5011178;28;20555;-69
2022/09/11 06:13:16;;;;;;;25.98;20.08;;;;;;;;;;5028998;28;20287;-69
2022/09/11 06:15:45;;;;;;;25.42;18.58;;;;;;;;;;5024049;28;20220;-70
2022/09/11 06:18:10;;;;;;;25.63;19.00;;;;;;;;;;5018493;28;20216;-69
2022/09/11 06:20:36;;;;;;;26.02;18.73;;;;;;;;;;5023269;28;20677;-69
2022/09/11 06:23:01;;;;;;;25.52;21.10;;;;;;;;;;5024357;28;20784;-71
2022/09/11 06:25:26;;;;;;;25.63;19.75;;;;;;;;;;5031796;28;20218;-69
2022/09/11 06:27:52;;;;;;;29.13;20.63;;;;;;;;;;5033514;28;20741;-67
2022/09/11 06:30:17;;;;;;;25.10;20.58;;;;;;;;;;5024627;28;20212;-70
2022/09/11 06:32:42;;;;;;;28.52;20.63;;;;;;;;;;5023396;28;20200;-70
2022/09/11 06:35:08;;;;;;;26.52;20.30;;;;;;;;;;5027022;28;20212;-71
2022/09/11 06:37:34;;;;;;;27.30;21.00;;;;;;;;;;5025582;28;20698;-70
2022/09/11 06:40:00;;;;;;;28.15;21.15;;;;;;;;;;5032965;28;20240;-70
2022/09/11 06:42:26;;;;;;;27.33;19.75;;;;;;;;;;5015961;28;20232;-72
2022/09/11 06:44:52;;;;;;;29.42;22.13;;;;;;;;;;5052064;28;20215;-69
2022/09/11 06:47:17;;;;;;;30.17;22.85;;;;;;;;;;5025126;28;20566;-69
2022/09/11 06:49:42;;;;;;;28.17;22.05;;;;;;;;;;5017622;28;20351;-68
2022/09/11 06:52:08;;;;;;;29.67;22.02;;;;;;;;;;5031534;28;20321;-68
2022/09/11 06:54:33;;;;;;;30.63;22.75;;;;;;;;;;5052697;28;20564;-68
2022/09/11 06:56:58;;;;;;;28.80;21.20;;;;;;;;;;5053270;28;20231;-68
2022/09/11 06:59:24;;;;;;;31.38;20.13;;;;;;;;;;5052674;28;20211;-68
2022/09/11 07:01:50;;;;;;;24.23;17.00;;;;;;;;;;5051188;28;20674;-68
2022/09/11 07:04:15;;;;;;;23.48;17.25;;;;;;;;;;5052946;28;20219;-68
2022/09/11 07:06:41;;;;;;;25.83;16.70;;;;;;;;;;5053143;28;20230;-68
2022/09/11 07:09:06;;;;;;;21.02;14.77;;;;;;;;;;5051745;28;20214;-68
2022/09/11 07:11:33;;;;;;;19.40;15.25;;;;;;;;;;5053224;28;20273;-67
2022/09/11 07:14:00;;;;;;;17.60;13.85;;;;;;;;;;5051284;28;20242;-68
2022/09/11 07:16:25;;;;;;;19.05;14.65;;;;;;;;;;5051735;28;20240;-69
2022/09/11 07:18:51;;;;;;;17.30;14.23;;;;;;;;;;5031684;28;20240;-70
2022/09/11 07:21:17;;;;;;;19.77;14.13;;;;;;;;;;5031764;28;20287;-70
2022/09/11 07:23:44;;;;;;;22.02;15.02;;;;;;;;;;5032266;28;20663;-69
2022/09/11 07:26:10;;;;;;;23.20;17.05;;;;;;;;;;5011186;28;20263;-67
2022/09/11 07:28:36;;;;;;;21.05;16.52;;;;;;;;;;5012346;28;20613;-70
2022/09/11 07:31:03;;;;;;;25.42;17.02;;;;;;;;;;5012400;28;20222;-69
2022/09/11 07:33:28;;;;;;;22.27;16.60;;;;;;;;;;5010730;28;20295;-69
2022/09/11 07:35:54;;;;;;;22.92;16.27;;;;;;;;;;5012956;28;20304;-70
2022/09/11 07:38:19;;;;;;;21.92;16.42;;;;;;;;;;5032297;28;20298;-70
2022/09/11 07:40:45;;;;;;;24.23;16.95;;;;;;;;;;5032246;28;20742;-70
2022/09/11 07:43:12;;;;;;;24.83;17.23;;;;;;;;;;5031605;28;20219;-69
2022/09/11 07:45:37;;;;;;;29.08;19.17;;;;;;;;;;5032305;28;20573;-70
2022/09/11 07:48:03;;;;;;;25.23;18.75;;;;;;;;;;5030688;28;20216;-68
2022/09/11 07:50:28;;;;;;;25.95;19.40;;;;;;;;;;5042895;28;20221;-68
2022/09/11 07:52:53;;;;;;;23.73;18.23;;;;;;;;;;5035955;28;20294;-69
2022/09/11 07:55:20;;;;;;;27.08;19.52;;;;;;;;;;5031806;28;20207;-69
2022/09/11 07:57:46;;;;;;;25.77;19.17;;;;;;;;;;5031515;28;20226;-68
2022/09/11 08:00:12;;;;;;;28.42;20.05;;;;;;;;;;5031578;28;20208;-68
2022/09/11 08:02:37;;;;;;;26.77;19.98;;;;;;;;;;5031011;28;20232;-67
2022/09/11 08:05:03;;;;;;;25.35;19.70;;;;;;;;;;5031036;28;20254;-69
2022/09/11 08:07:29;;;;;;;40.78;22.90;;;;;;;;;;5030889;28;20721;-70
2022/09/11 08:09:55;;;;;;;29.60;21.00;;;;;;;;;;5032005;28;20215;-70
2022/09/11 08:12:22;;;;;;;27.23;20.90;;;;;;;;;;5030665;28;20222;-69
2022/09/11 08:14:47;;;;;;;29.67;21.88;;;;;;;;;;5031958;28;20238;-71
2022/09/11 08:17:13;;;;;;;25.65;20.50;;;;;;;;;;5031201;28;20602;-71
2022/09/11 08:19:38;;;;;;;29.38;22.38;;;;;;;;;;5031217;28;20216;-69
2022/09/11 08:22:03;;;;;;;27.52;21.45;;;;;;;;;;5031323;28;20219;-69
2022/09/11 08:24:29;;;;;;;30.25;22.88;;;;;;;;;;5031066;28;20683;-70
2022/09/11 08:26:55;;;;;;;34.08;23.25;;;;;;;;;;5030315;28;20628;-70
2022/09/11 08:29:21;;;;;;;29.73;21.90;;;;;;;;;;5031068;28;20227;-70
2022/09/11 08:31:46;;;;;;;34.95;24.80;;;;;;;;;;5030808;28;20235;-70
2022/09/11 08:34:11;;;;;;;34.45;25.48;;;;;;;;;;5029803;28;20216;-70
2022/09/11 08:36:37;;;;;;;31.85;23.33;;;;;;;;;;5031511;28;20291;-71
2022/09/11 08:39:02;;;;;;;36.53;26.20;;;;;;;;;;5027207;28;20280;-69
2022/09/11 08:41:30;;;;;;;32.50;25.25;;;;;;;;;;5031106;28;20234;-67
2022/09/11 08:43:58;;;;;;;34.85;25.50;;;;;;;;;;5030089;28;20211;-69
2022/09/11 08:46:25;;;;;;;33.22;25.90;;;;;;;;;;5012140;28;20620;-69
2022/09/11 08:48:55;;;;;;;34.90;26.42;;;;;;;;;;5032016;28;20211;-68
2022/09/11 08:51:21;;;;;;;36.22;26.98;;;;;;;;;;5034141;28;20215;-69
2022/09/11 08:53:46;;;;;;;34.92;26.70;;;;;;;;;;5050426;28;20285;-70
2022/09/11 08:56:14;;;;;;;34.30;26.05;;;;;;;;;;5049352;28;20618;-69
2022/09/11 08:58:39;;;;;;;33.80;26.38;;;;;;;;;;5049542;28;20231;-69
2022/09/11 09:01:08;;;;;;;32.08;25.58;;;;;;;;;;5049590;28;20588;-70
2022/09/11 09:03:48;;;;;;;31.00;25.33;;;;;;;;;;5051075;28;20211;-69
2022/09/11 09:06:24;;;;;;;32.17;26.17;;;;;;;;;;5050557;28;20210;-68
2022/09/11 09:09:02;;;;;;;31.88;25.73;;;;;;;;;;5050096;28;20211;-69
2022/09/11 09:11:30;;;;;;;31.02;24.73;;;;;;;;;;5049240;28;20234;-69
2022/09/11 09:14:09;;;;;;;33.90;26.60;;;;;;;;;;5048662;28;20215;-69
2022/09/11 09:16:38;;;;;;;30.30;25.25;;;;;;;;;;5046596;28;20604;-69
2022/09/11 09:19:08;;;;;;;30.75;25.08;;;;;;;;;;5029070;28;20549;-69
2022/09/11 09:21:36;;;;;;;34.95;26.20;;;;;;;;;;5029990;28;20204;-70
2022/09/11 09:24:02;;;;;;;33.47;26.52;;;;;;;;;;5029005;28;20731;-69
2022/09/11 09:26:28;;;;;;;31.98;25.95;;;;;;;;;;5030716;28;20279;-70
2022/09/11 09:28:54;;;;;;;32.15;26.33;;;;;;;;;;5011911;28;20674;-69
2022/09/11 09:31:20;;;;;;;30.15;25.30;;;;;;;;;;5019958;28;20263;-69
2022/09/11 09:33:53;;;;;;;31.55;25.10;;;;;;;;;;5009865;28;20522;-67
2022/09/11 09:36:20;;;;;;;30.73;26.10;;;;;;;;;;5011326;28;20297;-73
2022/09/11 09:38:47;;;;;;;32.58;28.17;;;;;;;;;;5001615;28;20661;-71
2022/09/11 09:41:22;;;;;;;33.63;27.38;;;;;;;;;;5006101;28;20735;-71
2022/09/11 09:43:52;;;;;;;31.75;26.85;;;;;;;;;;5023407;28;20238;-77
2022/09/11 09:46:31;;;;;;;29.88;25.38;;;;;;;;;;5023816;28;20253;-71
2022/09/11 09:48:56;;;;;;;32.97;24.35;;;;;;;;;;5022156;28;20219;-71
2022/09/11 09:51:21;;;;;;;29.48;25.85;;;;;;;;;;5013122;28;20220;-71
2022/09/11 09:53:49;;;;;;;29.73;25.98;;;;;;;;;;5005836;28;20207;-68
2022/09/11 09:56:15;;;;;;;28.98;24.67;;;;;;;;;;5015889;28;20285;-68
2022/09/11 09:58:45;;;;;;;28.65;24.98;;;;;;;;;;5016951;28;20224;-68
2022/09/11 10:01:45;;;;;;;28.67;25.48;;;;;;;;;;5017131;28;20220;-68
2022/09/11 10:04:13;;;;;;;29.02;25.58;;;;;;;;;;5021820;28;20270;-67
2022/09/11 10:06:38;;;;;;;26.33;23.42;;;;;;;;;;5020526;28;20209;-68
2022/09/11 10:09:03;;;;;;;28.58;23.77;;;;;;;;;;5022864;28;20297;-68
2022/09/11 10:11:29;;;;;;;28.63;25.02;;;;;;;;;;5021952;28;20215;-67
2022/09/11 10:13:54;;;;;;;27.48;23.95;;;;;;;;;;5024109;28;20211;-67
2022/09/11 10:16:22;;;;;;;28.15;23.77;;;;;;;;;;5023050;28;20218;-68
2022/09/11 10:18:47;;;;;;;27.63;24.30;;;;;;;;;;5018104;28;20393;-67
2022/09/11 10:21:16;;;;;;;27.13;23.23;;;;;;;;;;5016063;28;20807;-68
2022/09/11 10:23:54;;;;;;;26.88;24.08;;;;;;;;;;5017519;28;21372;-67
2022/09/11 10:26:25;;;;;;;24.55;21.95;;;;;;;;;;5021101;28;20296;-67
2022/09/11 10:28:52;;;;;;;23.23;20.63;;;;;;;;;;5023556;28;20223;-67
2022/09/11 10:31:17;;;;;;;23.20;20.40;;;;;;;;;;5022373;28;20208;-67
2022/09/11 10:33:50;;;;;;;21.80;18.77;;;;;;;;;;5024060;28;20204;-67
2022/09/11 10:36:15;;;;;;;19.05;16.27;;;;;;;;;;5019949;28;20208;-67
2022/09/11 10:38:43;;;;;;;22.08;18.58;;;;;;;;;;5020755;28;20216;-67
2022/09/11 10:41:11;;;;;;;17.83;15.77;;;;;;;;;;5013002;28;20824;-67
2022/09/11 10:43:44;;;;;;;20.80;16.88;;;;;;;;;;5016502;28;20247;-67
2022/09/11 10:46:16;;;;;;;20.13;17.50;;;;;;;;;;5015894;28;20227;-67
2022/09/11 10:48:42;;;;;;;21.08;18.05;;;;;;;;;;5020478;28;20207;-67
2022/09/11 10:51:11;;;;;;;20.65;17.83;;;;;;;;;;5005108;28;20227;-67
2022/09/11 10:53:38;;;;;;;18.20;16.20;;;;;;;;;;5018731;28;20213;-67
2022/09/11 10:56:04;;;;;;;16.95;15.15;;;;;;;;;;5017943;28;20207;-67
2022/09/11 10:58:32;;;;;;;18.17;14.13;;;;;;;;;;5029648;28;20227;-67
2022/09/11 11:00:57;;;;;;;18.50;15.43;;;;;;;;;;5027590;28;20223;-66
2022/09/11 11:03:23;;;;;;;17.10;14.45;;;;;;;;;;5028969;28;20207;-66
2022/09/11 11:05:55;;;;;;;20.00;15.88;;;;;;;;;;5028329;28;20290;-67
2022/09/11 11:08:27;;;;;;;18.33;15.60;;;;;;;;;;5029593;28;20216;-67
2022/09/11 11:11:02;;;;;;;17.33;15.43;;;;;;;;;;5033125;28;20710;-67
2022/09/11 11:13:28;;;;;;;19.27;15.00;;;;;;;;;;5030911;28;20214;-67
2022/09/11 11:15:58;;;;;;;18.40;14.60;;;;;;;;;;5033044;28;20215;-67
2022/09/11 11:18:30;;;;;;;16.98;15.18;;;;;;;;;;5032456;28;20219;-67
2022/09/11 11:20:59;;;;;;;15.40;13.23;;;;;;;;;;5032139;28;20269;-67
2022/09/11 11:23:34;;;;;;;15.65;13.95;;;;;;;;;;5032622;28;20207;-67
2022/09/11 11:25:59;;;;;;;19.60;16.48;;;;;;;;;;5031782;28;20215;-67
2022/09/11 11:28:25;;;;;;;17.67;15.63;;;;;;;;;;5031725;28;20211;-67
2022/09/11 11:30:57;;;;;;;18.98;15.88;;;;;;;;;;5032798;28;20219;-68
2022/09/11 11:33:30;;;;;;;18.05;14.55;;;;;;;;;;5032186;28;20212;-69
2022/09/11 11:36:03;;;;;;;14.63;12.95;;;;;;;;;;5031354;28;20690;-70
2022/09/11 11:38:28;;;;;;;16.40;14.13;;;;;;;;;;5031076;28;20224;-68
2022/09/11 11:40:55;;;;;;;14.65;13.13;;;;;;;;;;5027660;28;20228;-68
2022/09/11 11:43:21;;;;;;;15.65;13.27;;;;;;;;;;5011665;28;20224;-74
2022/09/11 11:45:48;;;;;;;18.30;14.02;;;;;;;;;;5011887;28;20218;-67
2022/09/11 11:48:33;;;;;;;17.45;13.75;;;;;;;;;;5021685;28;20231;-68
2022/09/11 11:51:01;;;;;;;16.40;14.68;;;;;;;;;;5023331;28;20200;-67
2022/09/11 11:53:28;;;;;;;16.23;14.52;;;;;;;;;;5021316;28;20225;-67
2022/09/11 11:56:10;;;;;;;17.45;14.85;;;;;;;;;;5019839;28;20208;-67
2022/09/11 11:58:48;;;;;;;17.52;14.90;;;;;;;;;;4998687;28;20223;-67
2022/09/11 12:01:28;;;;;;;15.98;13.73;;;;;;;;;;5015138;28;20299;-67
2022/09/11 12:04:01;;;;;;;15.90;13.18;;;;;;;;;;5017962;28;20271;-67
2022/09/11 12:06:28;;;;;;;16.58;13.60;;;;;;;;;;5004289;28;20726;-70
2022/09/11 12:08:53;;;;;;;15.90;12.60;;;;;;;;;;5006074;28;20244;-67
2022/09/11 12:11:23;;;;;;;15.35;13.65;;;;;;;;;;5020837;28;20299;-68
2022/09/11 12:13:48;;;;;;;14.32;11.82;;;;;;;;;;5006052;28;20668;-69
2022/09/11 12:16:27;;;;;;;14.05;12.13;;;;;;;;;;5021453;28;20215;-69
2022/09/11 12:19:02;;;;;;;13.55;11.48;;;;;;;;;;5002898;28;20240;-69
2022/09/11 12:21:30;;;;;;;13.95;11.82;;;;;;;;;;4999113;28;20247;-68
2022/09/11 12:23:55;;;;;;;13.00;10.73;;;;;;;;;;4998907;28;20278;-69
2022/09/11 12:26:21;;;;;;;13.45;10.60;;;;;;;;;;5002768;28;20224;-69
2022/09/11 12:28:46;;;;;;;12.35;9.95;;;;;;;;;;5006679;28;20208;-68
2022/09/11 12:31:12;;;;;;;13.60;10.82;;;;;;;;;;5020725;28;20217;-68
2022/09/11 12:33:40;;;;;;;13.98;11.18;;;;;;;;;;5021644;28;20249;-69
2022/09/11 12:36:07;;;;;;;12.65;10.82;;;;;;;;;;5006108;28;20270;-68
2022/09/11 12:38:37;;;;;;;10.93;9.48;;;;;;;;;;5020760;28;20228;-69
2022/09/11 12:41:06;;;;;;;12.75;10.40;;;;;;;;;;5009503;28;20359;-67
2022/09/11 12:43:47;;;;;;;12.48;10.35;;;;;;;;;;5017591;28;20746;-69
2022/09/11 12:46:12;;;;;;;12.68;9.88;;;;;;;;;;5015532;28;20212;-69
2022/09/11 12:48:40;;;;;;;10.70;9.02;;;;;;;;;;5020568;28;20688;-69
2022/09/11 12:51:06;;;;;;;12.48;9.57;;;;;;;;;;5007147;28;20231;-68
2022/09/11 12:53:32;;;;;;;9.88;8.43;;;;;;;;;;5020902;28;20209;-68
2022/09/11 12:55:59;;;;;;;11.55;8.98;;;;;;;;;;5005978;28;20216;-69
2022/09/11 12:58:27;;;;;;;9.80;7.88;;;;;;;;;;5005751;28;20629;-69
2022/09/11 13:01:12;;;;;;;9.38;7.70;;;;;;;;;;5005245;28;20953;-69
2022/09/11 13:03:38;;;;;;;9.50;8.48;;;;;;;;;;5004496;28;20335;-68
2022/09/11 13:06:06;;;;;;;10.32;9.05;;;;;;;;;;5011985;28;20264;-68
2022/09/11 13:08:33;;;;;;;10.70;9.38;;;;;;;;;;4998788;28;20692;-68
2022/09/11 13:11:17;;;;;;;13.80;8.43;;;;;;;;;;5000758;28;20926;-69
2022/09/11 13:13:43;;;;;;;9.63;8.52;;;;;;;;;;5005217;28;20212;-69
2022/09/11 13:16:17;;;;;;;11.73;9.25;;;;;;;;;;5005376;28;20307;-69
2022/09/11 13:18:42;;;;;;;10.35;9.00;;;;;;;;;;5005699;28;20762;-70
2022/09/11 13:21:07;;;;;;;12.98;9.30;;;;;;;;;;5004726;28;20235;-69
2022/09/11 13:23:33;;;;;;;10.32;7.93;;;;;;;;;;5005371;28;20262;-68
2022/09/11 13:25:58;;;;;;;11.15;7.75;;;;;;;;;;5005659;28;20216;-69
2022/09/11 13:28:24;;;;;;;9.88;7.40;;;;;;;;;;5010807;28;20262;-68
2022/09/11 13:30:51;;;;;;;9.82;7.85;;;;;;;;;;4997842;28;20212;-68
2022/09/11 13:33:18;;;;;;;9.05;7.32;;;;;;;;;;5000256;28;20240;-68
2022/09/11 13:35:44;;;;;;;9.25;7.15;;;;;;;;;;5034298;28;20671;-68
2022/09/11 13:38:12;;;;;;;7.85;6.35;;;;;;;;;;5029798;28;20243;-68
2022/09/11 13:40:40;;;;;;;7.97;6.88;;;;;;;;;;5027594;28;20689;-68
2022/09/11 13:43:05;;;;;;;8.27;6.20;;;;;;;;;;5009661;28;20211;-69
2022/09/11 13:45:30;;;;;;;8.63;5.70;;;;;;;;;;5010866;28;20205;-68
2022/09/11 13:47:56;;;;;;;10.48;7.90;;;;;;;;;;5009742;28;20247;-69
2022/09/11 13:50:22;;;;;;;9.23;7.13;;;;;;;;;;5023366;28;20266;-68
2022/09/11 13:52:47;;;;;;;10.88;7.70;;;;;;;;;;5044269;28;20210;-68
2022/09/11 13:55:19;;;;;;;6.72;5.60;;;;;;;;;;5047802;28;20625;-69
2022/09/11 13:58:03;;;;;;;8.07;6.10;;;;;;;;;;5049796;28;20226;-69
2022/09/11 14:00:43;;;;;;;7.85;5.70;;;;;;;;;;5049821;28;20222;-68
2022/09/11 14:03:15;;;;;;;7.80;5.53;;;;;;;;;;5045236;28;20243;-67
2022/09/11 14:05:46;;;;;;;7.78;5.70;;;;;;;;;;5015723;28;20212;-70
2022/09/11 14:08:21;;;;;;;8.25;6.10;;;;;;;;;;5009326;28;20291;-69
2022/09/11 14:10:49;;;;;;;8.80;5.68;;;;;;;;;;5017430;28;20222;-70
2022/09/11 14:13:19;;;;;;;7.22;5.30;;;;;;;;;;5007968;28;20216;-70
2022/09/11 14:15:46;;;;;;;7.05;5.50;;;;;;;;;;5015382;28;20208;-69
2022/09/11 14:18:12;;;;;;;8.25;5.95;;;;;;;;;;5022143;28;20234;-69
2022/09/11 14:20:40;;;;;;;8.45;5.57;;;;;;;;;;5024650;28;20231;-69